Latest Coastal Weather Observations for Broome Port

IDW60701

Issued at 2:45 am WST Thursday 27 November 2014 (issued every 10 minutes, with the page automatically refreshed every 10 minutes)

About coastal observations | Map of coastal stations | Coastal observations for WA | Marine services | Other Formats
Station Details ID: 003102 Name: BROOME NTC AWS Lat: -18.00 Lon: 122.22 Height: 0.0 m
Data from the previous 72 hours. | See also: Recent months for locations in Western Australia
Date/Time
WST
Temp

°C
Wind Pressure Rain
since 9am
mm
Weather Cloud Vis
km
Sea
Height
m
Swell
Dir
 
Speed
knots
Gust
knots
hPa Trend Height
m
Period
s
Dir
27/02:30am - W 8 11 1006.1 - - - - - - - - -
27/02:00am - W 7 10 1006.0 - - - - - - - - -
27/01:30am - W 9 12 1005.7 - - - - - - - - -
27/01:00am - WNW 9 12 1005.5 - - - - - - - - -
27/12:30am - NW 8 11 1005.6 - - - - - - - - -
27/12:00am - NW 9 11 1005.7 - - - - - - - - -
 
Date/Time
WST
Temp

°C
Wind Pressure Rain
since 9am
mm
Weather Cloud Vis
km
Sea
Height
m
Swell
Dir
 
Speed
knots
Gust
knots
hPa Trend Height
m
Period
s
Dir
26/11:30pm - NW 10 13 1005.9 - - - - - - - - -
26/11:00pm - NNW 11 14 1006.1 - - - - - - - - -
26/10:30pm - NNW 12 15 1006.3 - - - - - - - - -
26/10:00pm - N 15 19 1006.3 - - - - - - - - -
26/09:30pm - NNW 15 20 1006.1 - - - - - - - - -
26/09:00pm - N 11 15 1006.5 - - - - - - - - -
26/08:30pm - N 12 16 1005.9 - - - - - - - - -
26/08:00pm - NNW 13 17 1005.2 - - - - - - - - -
26/07:30pm - N 15 23 1004.8 - - - - - - - - -
26/07:00pm - N 14 19 1004.2 - - - - - - - - -
26/06:30pm - WSW 12 14 1003.2 - - - - - - - - -
26/06:00pm - WSW 12 14 1002.7 - - - - - - - - -
26/05:30pm 31.6 W 13 15 1002.2 - - - - - - - - -
26/05:00pm 32.3 WSW 13 18 1001.9 - - - - - - - - -
26/04:58pm 32.5 WSW 12 18 1001.9 - - - - - - - - -
26/04:30pm 37.5 SW 6 8 1001.8 - - - - - - - - -
26/04:00pm 38.0 SW 5 5 1001.9 - - - - - - - - -
26/03:30pm 38.0 SW 3 4 1002.2 - - - - - - - - -
26/03:00pm 38.3 SW 1 2 1002.6 - - - - - - - - -
26/02:30pm 36.3 CALM 0 1 1003.0 - - - - - - - - -
26/02:00pm 35.7 ESE 4 5 1003.2 - - - - - - - - -
26/01:30pm 35.2 ESE 10 11 1003.5 - - - - - - - - -
26/01:00pm 34.9 ESE 9 10 1003.9 - - - - - - - - -
26/12:30pm 34.3 SE 7 9 1004.6 - - - - - - - - -
26/12:00pm 33.7 ESE 9 12 1005.2 - - - - - - - - -
26/11:30am 33.3 ESE 13 15 1005.7 - - - - - - - - -
26/11:00am 32.8 ESE 16 19 1006.4 - - - - - - - - -
26/10:30am 32.4 SE 18 20 1007.0 - - - - - - - - -
26/10:00am 31.8 SE 20 24 1007.6 - - - - - - - - -
26/09:30am 31.1 SSE 21 26 1008.1 - - - - - - - - -
26/09:00am 30.5 SSE 21 25 1008.9 - - - - - - - - -
26/08:30am 30.2 SSE 22 26 1009.1 - - - - - - - - -
26/08:00am 29.5 SE 20 23 1009.2 - - - - - - - - -
26/07:30am 28.5 SE 21 24 1009.0 - - - - - - - - -
26/07:00am 28.7 SSE 18 23 1008.8 - - - - - - - - -
26/06:30am 28.0 S 17 20 1008.6 - - - - - - - - -
26/06:00am 28.4 S 20 24 1008.5 - - - - - - - - -
26/05:30am 28.7 SSW 19 22 1007.8 - - - - - - - - -
26/05:00am 28.6 SSW 15 19 1007.2 - - - - - - - - -
26/04:30am 29.1 S 12 14 1006.5 - - - - - - - - -
26/04:00am 29.1 S 12 16 1006.4 - - - - - - - - -
26/03:30am 29.4 SSE 15 19 1006.7 - - - - - - - - -
26/03:00am 29.3 SSE 8 10 1006.2 - - - - - - - - -
26/02:30am 29.4 SE 9 11 1006.5 - - - - - - - - -
26/02:00am 29.4 SSE 10 12 1006.6 - - - - - - - - -
26/01:30am 29.6 SSE 10 13 1006.6 - - - - - - - - -
26/01:00am 30.0 SSE 12 16 1006.8 - - - - - - - - -
26/12:30am 30.4 S 15 20 1007.0 - - - - - - - - -
26/12:00am 30.1 SW 11 13 1007.1 - - - - - - - - -
 
Date/Time
WST
Temp

°C
Wind Pressure Rain
since 9am
mm
Weather Cloud Vis
km
Sea
Height
m
Swell
Dir
 
Speed
knots
Gust
knots
hPa Trend Height
m
Period
s
Dir
25/11:30pm 29.9 SSW 19 23 1007.5 - - - - - - - - -
25/11:27pm 29.9 SSW 20 23 1007.7 - - - - - - - - -
25/11:00pm 30.1 SW 15 17 1007.4 - - - - - - - - -
25/10:30pm 30.0 W 10 13 1007.0 - - - - - - - - -
25/10:00pm 29.9 W 11 14 1006.6 - - - - - - - - -
25/09:30pm 30.1 WNW 12 15 1006.2 - - - - - - - - -
25/09:00pm 29.9 NW 11 14 1005.9 - - - - - - - - -
25/08:30pm 30.2 NW 12 16 1005.5 - - - - - - - - -
25/08:00pm 30.2 NW 12 15 1005.3 - - - - - - - - -
25/07:30pm 30.4 NW 12 15 1005.2 - - - - - - - - -
25/07:00pm 30.5 NW 12 15 1004.9 - - - - - - - - -
25/06:30pm 30.7 NW 12 15 1004.7 - - - - - - - - -
25/06:00pm 30.9 NW 13 16 1004.3 - - - - - - - - -
25/05:30pm 31.2 NW 13 15 1004.1 - - - - - - - - -
25/05:00pm 30.9 NW 14 17 1003.8 - - - - - - - - -
25/04:30pm 31.3 NW 16 19 1003.6 - - - - - - - - -
25/04:00pm 31.5 NW 15 18 1003.7 - - - - - - - - -
25/03:30pm 31.9 NW 13 16 1004.1 - - - - - - - - -
25/03:00pm 31.9 NW 14 16 1004.6 - - - - - - - - -
25/02:30pm 32.4 WNW 12 14 1004.9 - - - - - - - - -
25/02:00pm 32.6 NW 10 12 1005.4 - - - - - - - - -
25/01:30pm 32.2 NNW 10 12 1005.6 - - - - - - - - -
25/01:00pm 32.0 NNW 9 11 1006.0 - - - - - - - - -
25/12:30pm 32.5 WNW 8 10 1006.3 - - - - - - - - -
25/12:00pm 33.3 NW 8 10 1006.6 - - - - - - - - -
25/11:30am 33.1 NNW 7 8 1007.2 - - - - - - - - -
25/11:00am 30.1 NNE 5 7 1007.8 - - - - - - - - -
25/10:30am 30.2 SE 3 6 1008.3 - - - - - - - - -
25/10:00am 29.8 SE 3 4 1008.6 - - - - - - - - -
25/09:30am 29.5 ENE 4 6 1008.8 - - - - - - - - -
25/09:00am 29.4 ESE 3 4 1009.0 - - - - - - - - -
25/08:30am 29.3 ESE 3 4 1009.2 - - - - - - - - -
25/08:00am 28.9 S 4 5 1009.2 - - - - - - - - -
25/07:30am 28.8 SSW 7 10 1009.2 - - - - - - - - -
25/07:00am 29.0 SSW 13 16 1008.8 - - - - - - - - -
25/06:30am 29.0 S 12 13 1008.5 - - - - - - - - -
25/06:00am 29.9 SW 12 14 1007.9 - - - - - - - - -
25/05:30am 29.7 WSW 11 14 1007.3 - - - - - - - - -
25/05:00am 29.9 W 10 12 1006.9 - - - - - - - - -
25/04:30am 29.8 W 10 13 1006.6 - - - - - - - - -
25/04:00am 29.9 W 12 15 1006.4 - - - - - - - - -
25/03:30am 29.9 W 11 15 1006.4 - - - - - - - - -
25/03:00am 29.6 W 10 13 1006.1 - - - - - - - - -
25/02:30am 29.4 W 11 13 1005.8 - - - - - - - - -
25/02:00am 29.4 W 11 13 1005.9 - - - - - - - - -
25/01:30am 29.4 W 11 14 1005.8 - - - - - - - - -
25/01:00am 29.4 W 10 14 1006.2 - - - - - - - - -
25/12:30am 29.4 WNW 9 12 1006.7 - - - - - - - - -
25/12:00am 29.6 WNW 11 13 1006.8 - - - - - - - - -
 
Date/Time
WST
Temp

°C
Wind Pressure Rain
since 9am
mm
Weather Cloud Vis
km
Sea
Height
m
Swell
Dir
 
Speed
knots
Gust
knots
hPa Trend Height
m
Period
s
Dir
24/11:30pm 29.5 NW 11 14 1006.9 - - - - - - - - -
24/11:00pm 29.5 NW 13 16 1007.2 - - - - - - - - -
24/10:30pm 29.5 WNW 14 17 1007.5 - - - - - - - - -
24/10:00pm 29.5 NW 13 17 1007.9 - - - - - - - - -
24/09:30pm 29.6 NW 14 17 1007.9 - - - - - - - - -
24/09:00pm 29.7 NW 15 18 1008.0 - - - - - - - - -
24/08:30pm 29.8 NW 15 18 1007.8 - - - - - - - - -
24/08:00pm 29.8 NW 16 19 1007.7 - - - - - - - - -
24/07:30pm 29.8 WNW 16 19 1007.3 - - - - - - - - -
24/07:00pm 29.8 NW 15 19 1007.0 - - - - - - - - -
24/06:30pm 29.9 NW 15 18 1006.6 - - - - - - - - -
24/06:00pm 30.0 NW 14 17 1006.4 - - - - - - - - -
24/05:30pm 30.2 NW 15 19 1006.1 - - - - - - - - -
24/05:00pm 30.5 NW 17 21 1005.7 - - - - - - - - -
24/04:30pm 30.6 NW 17 20 1005.6 - - - - - - - - -
24/04:00pm 30.5 WNW 17 20 1005.5 - - - - - - - - -
24/03:30pm 30.4 NW 17 20 1005.4 - - - - - - - - -
24/03:00pm 31.0 NW 15 18 1005.6 - - - - - - - - -
24/02:30pm 31.1 NW 14 16 1006.0 - - - - - - - - -
24/02:00pm 30.8 NW 13 16 1006.4 - - - - - - - - -
24/01:30pm 31.0 NW 11 15 1006.8 - - - - - - - - -
24/01:00pm 31.0 NW 10 13 1007.3 - - - - - - - - -
24/12:30pm 31.4 WNW 9 12 1007.7 - - - - - - - - -
24/12:00pm 30.6 NW 9 11 1008.2 - - - - - - - - -
24/11:30am 30.6 WNW 8 10 1008.5 - - - - - - - - -
24/11:00am 30.3 WNW 9 10 1009.0 - - - - - - - - -
24/10:30am 30.7 WNW 7 9 1009.4 - - - - - - - - -
24/10:00am 30.6 W 3 5 1009.9 - - - - - - - - -
24/09:30am 30.9 S 1 3 1010.3 - - - - - - - - -
24/09:00am 30.0 SW 3 4 1010.5 - - - - - - - - -
24/08:30am 30.0 S 3 4 1010.4 - - - - - - - - -
24/08:00am 29.9 SW 4 7 1010.3 - - - - - - - - -
24/07:30am 29.8 WSW 4 6 1010.2 - - - - - - - - -
24/07:00am 29.4 W 5 7 1009.9 - - - - - - - - -
24/06:30am 29.4 W 8 12 1009.4 - - - - - - - - -
24/06:00am 29.3 W 9 12 1008.8 - - - - - - - - -
24/05:30am 29.3 W 9 12 1008.8 - - - - - - - - -
24/05:00am 29.4 WNW 9 11 1008.4 - - - - - - - - -
24/04:30am 29.3 WNW 9 11 1008.0 - - - - - - - - -
24/04:00am 29.4 WNW 8 10 1007.9 - - - - - - - - -
24/03:30am 29.3 WNW 7 9 1007.8 - - - - - - - - -
24/03:00am 29.3 WNW 10 12 1007.2 - - - - - - - - -

Other Formats:

Comma delimited format used in spreadsheet applications
http://www.bom.gov.au/fwo/IDW60701/IDW60701.95202.axf

JavaScript Object Notation format (JSON) in row-major order
http://www.bom.gov.au/fwo/IDW60701/IDW60701.95202.json